Hub


Voltar

 INFORMAÇÕES METEOROLÓGICAS

METAR FOR VABB


ADDS - METARS form results

(0322 UTC 20 April 2019)
Data provider http://aviationweather.gov/metar/data/
 
METAR text: VABB 200300Z 00000KT 2700 HZ NSC 29/20 Q1009 BECMG 3000 HZ
Conditions at: VABB (BOMBAY/SANTACRUZ, IN) observed 0300 UTC 20 April 2019
Temperature: 29.0°C (84°F)
Dewpoint: 20.0°C (68°F) [RH = 58%]
Pressure (altimeter): 29.79 inches Hg (1009.0 mb)
Winds: calm
Visibility: 1.68 miles (2.70 km)
Ceiling: at least 12,000 feet AGL
Clouds: sky clear below 12,000 feet AGL
Weather: HZ  (haze)

METAR text: VABB 200230Z 00000KT 2700 HZ NSC 29/22 Q1008 NOSIG
Conditions at: VABB (BOMBAY/SANTACRUZ, IN) observed 0230 UTC 20 April 2019
Temperature: 29.0°C (84°F)
Dewpoint: 22.0°C (72°F) [RH = 66%]
Pressure (altimeter): 29.76 inches Hg (1008.0 mb)
Winds: calm
Visibility: 1.68 miles (2.70 km)
Ceiling: at least 12,000 feet AGL
Clouds: sky clear below 12,000 feet AGL
Weather: HZ  (haze)

Forecast for: VABB (BOMBAY/SANTACRUZ, IN)
Text: TAF VABB 200200Z 2003/2012 33005KT 4000 FU NSC
Forecast period: 0300 to 0600 UTC 20 April 2019
Forecast type: FROM: standard forecast or significant change
Winds: from the NNW (330 degrees) at 6 MPH (5 knots; 2.6 m/s)
Visibility: 2.49 miles (4.01 km)
Ceiling: unknown
Clouds: missing
Weather: FU  (smoke)
Text: BECMG 2006/2008 27008KT 5000 FU
Forecast period: 0600 to 0900 UTC 20 April 2019
Forecast type: BECOMING: Conditions expected to become as follows by 0800 UTC 20 April 2019
Winds: from the W (270 degrees) at 9 MPH (8 knots; 4.1 m/s)
Visibility: 3 miles (5 km)
Ceiling: unknown
Clouds: missing
Weather: FU  (smoke)
Text: BECMG 2009/2011 6000
Forecast period: 0900 to 1200 UTC 20 April 2019
Forecast type: BECOMING: Conditions expected to become as follows by 1100 UTC 20 April 2019
Winds: from the W (270 degrees) at 9 MPH (8 knots; 4.1 m/s)
Visibility: 4 miles (6 km)
Ceiling: unknown
Clouds: missing
Weather: FU  (smoke)


 MAPA DO AEROPORTO


 INFORMAÇÕES DA PISTA

Pista 09 Tamanho da pista 11302 ft Largura da pista 148 ft
Elevação da pista 15 ft Ranhura da pista 465 ft Proa da pista 89
Pista 27 Tamanho da pista 11302 ft Largura da pista 148 ft
Elevação da pista 22 ft Ranhura da pista 1581 ft Proa da pista 269
Pista 14 Tamanho da pista 9596 ft Largura da pista 150 ft
Elevação da pista 37 ft Ranhura da pista 1238 ft Proa da pista 134
Pista 32 Tamanho da pista 9596 ft Largura da pista 150 ft
Elevação da pista 26 ft Ranhura da pista 853 ft Proa da pista 314

 FREQUÊNCIAS DO AEROPORTO

Tipo ACC Nome MUMBAI Frequência 120.5 MHZ
Tipo APP Nome MUMBAI APP Frequência 127.9 MHZ
Tipo ATIS Nome MUMBAI ATI Frequência 126.4 MHZ
Tipo CLD Nome MUMBAI CLR Frequência 121.85 MHZ
Tipo GND Nome MUMBAI GND Frequência 121.9 MHZ
Tipo RDO Nome MUMBAI RDO Frequência 1008.4 MHZ
Tipo RDR Nome RDR Frequência 119.3 MHZ
Tipo TWR Nome MUMBAI TWR Frequência 118.1 MHZ

 AUXÍLIOS DE NAVEGAÇÃO PRÓXIMOS AO AEROPORTO

Tipo VOR-DME Nome Mumbai Frequência 116600 KHZ